Time;durP1;ratioP1;P1;durP2;ratioP2;P2;SDS_P1;SDS_P2;PMS_P1;PMS_P2;Temp;Humidity;BMP_temperature;BMP_pressure;BME280_temperature;BME280_humidity;BME280_pressure;Samples;Min_cycle;Max_cycle;Signal;HPM_P1;HPM_P2
2022/08/22 00:00:51;;;;;;;10.73;3.60;;;17.50;99.90;;;;;;4974559;28;20040;-58
2022/08/22 00:03:38;;;;;;;10.32;3.63;;;17.40;99.90;;;;;;4974101;28;20051;-58
2022/08/22 00:06:25;;;;;;;16.42;3.95;;;17.80;99.90;;;;;;4974039;28;20054;-58
2022/08/22 00:08:56;;;;;;;13.20;3.70;;;17.40;99.90;;;;;;4973972;28;20513;-58
2022/08/22 00:11:29;;;;;;;15.10;3.65;;;17.70;99.90;;;;;;4974116;28;20447;-58
2022/08/22 00:14:20;;;;;;;10.85;3.58;;;17.40;99.90;;;;;;4974053;28;20117;-59
2022/08/22 00:17:13;;;;;;;10.05;3.30;;;17.40;99.90;;;;;;4974099;28;20163;-58
2022/08/22 00:20:13;;;;;;;13.75;3.63;;;17.30;99.90;;;;;;4974131;28;20045;-58
2022/08/22 00:22:47;;;;;;;9.48;3.35;;;17.50;99.90;;;;;;4973984;28;20073;-58
2022/08/22 00:25:28;;;;;;;11.95;3.30;;;17.30;99.90;;;;;;4974119;28;20043;-58
2022/08/22 00:28:03;;;;;;;11.70;3.70;;;17.80;99.90;;;;;;4973917;28;20047;-58
2022/08/22 00:30:51;;;;;;;10.98;3.70;;;17.30;99.90;;;;;;4973941;28;20042;-58
2022/08/22 00:33:43;;;;;;;17.23;4.15;;;17.30;99.90;;;;;;4974085;28;20058;-58
2022/08/22 00:36:29;;;;;;;10.48;3.70;;;17.30;99.90;;;;;;4963658;28;20127;-58
2022/08/22 00:39:20;;;;;;;13.68;3.80;;;17.40;99.90;;;;;;4973898;28;20499;-58
2022/08/22 00:42:00;;;;;;;14.98;3.78;;;17.50;99.90;;;;;;4973735;28;20045;-58
2022/08/22 00:45:03;;;;;;;16.75;3.70;;;17.40;99.90;;;;;;4973885;28;20042;-58
2022/08/22 00:47:47;;;;;;;11.18;3.67;;;17.30;99.90;;;;;;4973856;28;20093;-58
2022/08/22 00:50:28;;;;;;;11.98;3.70;;;17.20;99.90;;;;;;4977424;28;20114;-58
2022/08/22 00:53:15;;;;;;;10.43;3.90;;;17.20;99.90;;;;;;4977246;28;20198;-58
2022/08/22 00:55:52;;;;;;;8.63;3.75;;;17.30;99.90;;;;;;4977034;28;20035;-58
2022/08/22 00:58:29;;;;;;;12.43;3.72;;;17.20;99.90;;;;;;4976978;28;20538;-58
2022/08/22 01:01:04;;;;;;;14.20;3.70;;;17.10;99.90;;;;;;4977180;28;20043;-58
2022/08/22 01:04:06;;;;;;;12.60;3.55;;;17.00;99.90;;;;;;4977291;28;20045;-58
2022/08/22 01:07:00;;;;;;;12.30;3.70;;;17.20;99.90;;;;;;4973286;28;20113;-58
2022/08/22 01:09:45;;;;;;;10.30;3.80;;;17.20;99.90;;;;;;4976918;28;20062;-58
2022/08/22 01:12:30;;;;;;;14.68;4.18;;;17.30;99.90;;;;;;4976886;28;20423;-58
2022/08/22 01:15:08;;;;;;;12.02;3.78;;;17.70;99.90;;;;;;4977072;28;20050;-58
2022/08/22 01:17:59;;;;;;;15.30;4.57;;;17.20;99.90;;;;;;4976965;28;20125;-58
2022/08/22 01:20:39;;;;;;;13.85;4.25;;;17.20;99.90;;;;;;4976757;28;20054;-58
2022/08/22 01:23:24;;;;;;;20.23;3.97;;;17.30;99.90;;;;;;4976661;28;20411;-58
2022/08/22 01:26:24;;;;;;;13.80;4.18;;;17.30;99.90;;;;;;4976742;28;20126;-58
2022/08/22 01:29:11;;;;;;;11.52;4.30;;;18.40;99.90;;;;;;4976408;28;20039;-58
2022/08/22 01:31:54;;;;;;;14.45;4.00;;;17.30;99.90;;;;;;4976455;28;20524;-58
2022/08/22 01:34:30;;;;;;;9.75;3.85;;;17.30;99.90;;;;;;4976259;28;20046;-58
2022/08/22 01:37:14;;;;;;;16.52;4.00;;;17.20;99.90;;;;;;4959762;28;20077;-58
2022/08/22 01:40:05;;;;;;;12.57;4.03;;;16.80;99.90;;;;;;4975885;28;20050;-58
2022/08/22 01:42:56;;;;;;;11.35;3.80;;;17.30;99.90;;;;;;4976167;28;20065;-58
2022/08/22 01:45:31;;;;;;;11.07;3.55;;;17.20;99.90;;;;;;4976314;28;20074;-58
2022/08/22 01:48:22;;;;;;;12.48;3.88;;;17.00;99.90;;;;;;4976274;28;20054;-58
2022/08/22 01:50:55;;;;;;;11.77;3.88;;;17.30;99.90;;;;;;4976101;28;20031;-58
2022/08/22 01:53:43;;;;;;;11.02;4.00;;;17.20;99.90;;;;;;4976094;28;20602;-58
2022/08/22 01:56:16;;;;;;;10.30;3.47;;;17.10;99.90;;;;;;4975920;28;20045;-58
2022/08/22 01:58:52;;;;;;;12.35;3.90;;;17.10;99.90;;;;;;4975925;28;20051;-58
2022/08/22 02:01:36;;;;;;;14.43;4.30;;;17.00;99.90;;;;;;4975845;28;20101;-58
2022/08/22 02:04:32;;;;;;;10.57;3.78;;;17.00;99.90;;;;;;4976081;28;20145;-58
2022/08/22 02:07:19;;;;;;;9.35;3.60;;;17.00;99.90;;;;;;4975696;28;20039;-58
2022/08/22 02:10:06;;;;;;;10.20;4.00;;;16.90;99.90;;;;;;4975839;28;20078;-58
2022/08/22 02:12:59;;;;;;;12.23;4.15;;;16.60;99.90;;;;;;4975255;28;20117;-58
2022/08/22 02:15:40;;;;;;;10.13;3.70;;;16.90;99.90;;;;;;4975725;28;20487;-58
2022/08/22 02:18:05;;;;;;;10.27;3.85;;;16.90;99.90;;;;;;4974274;28;20047;-58
2022/08/22 02:20:46;;;;;;;10.98;4.00;;;16.90;99.90;;;;;;4975466;28;20442;-58
2022/08/22 02:23:39;;;;;;;11.60;3.70;;;17.20;99.90;;;;;;4974835;28;20059;-58
2022/08/22 02:26:16;;;;;;;11.70;3.90;;;16.60;99.90;;;;;;4975657;28;20074;-58
2022/08/22 02:29:08;;;;;;;10.88;4.15;;;16.80;99.90;;;;;;4975494;28;20077;-58
2022/08/22 02:32:21;;;;;;;12.82;4.40;;;16.90;99.90;;;;;;4975331;28;20480;-58
2022/08/22 02:35:05;;;;;;;11.00;4.07;;;16.80;99.90;;;;;;4932981;28;20086;-58
2022/08/22 02:37:53;;;;;;;10.60;4.13;;;17.60;99.90;;;;;;4958145;28;20078;-58
2022/08/22 02:41:01;;;;;;;13.93;4.20;;;16.80;99.90;;;;;;4973909;28;20061;-58
2022/08/22 02:43:38;;;;;;;10.95;4.00;;;16.80;99.90;;;;;;4953299;28;20522;-58
2022/08/22 02:46:37;;;;;;;11.27;3.80;;;16.70;99.90;;;;;;4975031;28;20053;-58
2022/08/22 02:49:27;;;;;;;9.20;3.80;;;16.80;99.90;;;;;;4975190;28;20053;-58
2022/08/22 02:52:15;;;;;;;8.70;3.85;;;16.70;99.90;;;;;;4974878;28;20442;-58
2022/08/22 02:54:55;;;;;;;12.43;4.25;;;16.70;99.90;;;;;;4974884;28;20046;-58
2022/08/22 02:57:26;;;;;;;11.30;4.30;;;16.80;99.90;;;;;;4975254;28;20045;-58
2022/08/22 03:00:27;;;;;;;11.43;4.10;;;16.70;99.90;;;;;;4975227;28;20379;-58
2022/08/22 03:03:24;;;;;;;12.95;4.90;;;16.80;99.90;;;;;;4974663;28;20161;-58
2022/08/22 03:06:24;;;;;;;11.73;4.78;;;16.80;99.90;;;;;;4975150;28;20066;-58
2022/08/22 03:09:25;;;;;;;12.80;4.55;;;16.80;99.90;;;;;;4974672;28;20081;-58
2022/08/22 03:12:27;;;;;;;11.02;4.10;;;16.80;99.90;;;;;;4974887;28;20026;-58
2022/08/22 03:15:31;;;;;;;12.77;3.95;;;16.90;99.90;;;;;;4974757;28;20062;-58
2022/08/22 03:18:15;;;;;;;12.05;4.15;;;17.20;99.90;;;;;;4973403;28;20073;-58
2022/08/22 03:20:43;;;;;;;15.75;4.75;;;16.50;99.90;;;;;;4974730;28;20435;-58
2022/08/22 03:23:25;;;;;;;14.85;4.50;;;16.80;99.90;;;;;;4974406;28;20089;-58
2022/08/22 03:26:00;;;;;;;10.25;4.60;;;16.80;99.90;;;;;;4957173;28;20052;-58
2022/08/22 03:28:45;;;;;;;11.98;4.40;;;16.90;99.90;;;;;;4974957;28;20113;-58
2022/08/22 03:31:18;;;;;;;15.43;5.00;;;16.70;99.90;;;;;;4974664;28;20109;-58
2022/08/22 03:34:19;;;;;;;11.85;4.57;;;16.60;99.90;;;;;;4974528;28;20046;-58
2022/08/22 03:37:06;;;;;;;12.10;5.13;;;16.80;99.90;;;;;;4974391;28;20117;-58
2022/08/22 03:39:54;;;;;;;;;;;16.70;99.90;;;;;;4956271;28;20054;-58
2022/08/22 03:42:31;;;;;;;15.02;5.78;;;16.70;99.90;;;;;;4895838;29;20002;-58
2022/08/22 03:45:02;;;;;;;18.52;5.75;;;16.50;99.90;;;;;;4880607;29;20052;-58
2022/08/22 03:47:40;;;;;;;12.90;5.45;;;16.60;99.90;;;;;;4895962;29;20153;-58
2022/08/22 03:50:50;;;;;;;15.60;6.28;;;17.50;99.90;;;;;;4896025;29;20394;-58
2022/08/22 03:53:44;;;;;;;14.73;6.10;;;16.50;99.90;;;;;;4896010;29;20056;-58
2022/08/22 03:56:31;;;;;;;14.65;6.45;;;16.60;99.90;;;;;;4895953;29;20115;-58
2022/08/22 03:59:38;;;;;;;16.42;6.38;;;16.50;99.90;;;;;;4895751;29;20052;-58
2022/08/22 04:02:12;;;;;;;13.85;6.18;;;16.50;99.90;;;;;;4895925;29;20048;-58
2022/08/22 04:04:44;;;;;;;17.02;6.20;;;16.50;99.90;;;;;;4895924;29;20045;-58
2022/08/22 04:07:50;;;;;;;17.92;6.70;;;16.30;99.90;;;;;;4895754;29;20068;-58
2022/08/22 04:10:46;;;;;;;14.38;6.45;;;16.20;99.90;;;;;;4895888;29;20508;-60
2022/08/22 04:13:54;;;;;;;14.95;6.35;;;16.50;99.90;;;;;;4895844;29;20134;-58
2022/08/22 04:16:45;;;;;;;16.52;6.60;;;16.40;99.90;;;;;;4895711;29;20482;-58
2022/08/22 04:19:46;;;;;;;16.95;6.35;;;16.60;99.90;;;;;;4928995;28;20051;-58
2022/08/22 04:22:48;;;;;;;18.50;5.97;;;16.30;99.90;;;;;;4876669;29;20049;-58
2022/08/22 04:25:16;;;;;;;16.23;5.78;;;16.30;99.90;;;;;;4880505;29;20045;-58
2022/08/22 04:28:13;;;;;;;15.85;6.03;;;16.30;99.90;;;;;;4880374;29;20129;-58
2022/08/22 04:30:39;;;;;;;15.35;5.90;;;17.10;99.90;;;;;;4880417;29;20104;-58
2022/08/22 04:33:37;;;;;;;20.63;6.28;;;16.40;99.90;;;;;;4880385;29;20041;-58
2022/08/22 04:36:21;;;;;;;16.90;6.10;;;16.00;99.90;;;;;;4879484;29;20494;-58
2022/08/22 04:38:53;;;;;;;15.80;6.18;;;16.10;99.90;;;;;;4880234;29;20077;-58
2022/08/22 04:41:29;;;;;;;16.20;6.40;;;16.20;99.90;;;;;;4880356;29;20044;-58
2022/08/22 04:44:06;;;;;;;19.60;6.70;;;16.30;99.90;;;;;;4880374;29;20053;-58
2022/08/22 04:46:44;;;;;;;15.90;6.47;;;16.50;99.90;;;;;;4880290;29;20149;-58
2022/08/22 04:49:13;;;;;;;21.40;6.55;;;16.60;99.90;;;;;;4880282;29;20061;-58
2022/08/22 04:51:46;;;;;;;19.42;6.25;;;16.50;99.90;;;;;;4880012;29;20055;-58
2022/08/22 04:54:30;;;;;;;20.67;6.40;;;16.30;99.90;;;;;;4879149;29;20041;-58
2022/08/22 04:56:59;;;;;;;14.85;6.25;;;16.40;99.90;;;;;;4943791;29;20063;-58
2022/08/22 04:59:25;;;;;;;16.10;6.28;;;16.60;99.90;;;;;;4957565;28;20078;-58
2022/08/22 05:02:05;;;;;;;16.95;6.45;;;16.40;99.90;;;;;;4956503;29;20507;-58
2022/08/22 05:04:44;;;;;;;15.68;6.25;;;16.20;99.90;;;;;;4957891;28;20499;-58
2022/08/22 05:07:21;;;;;;;19.38;6.07;;;15.90;99.90;;;;;;4957890;28;20039;-58
2022/08/22 05:09:57;;;;;;;15.23;6.18;;;16.50;99.90;;;;;;4941847;28;20050;-58
2022/08/22 05:12:31;;;;;;;14.32;6.20;;;16.60;99.90;;;;;;4947185;29;20122;-58
2022/08/22 05:15:04;;;;;;;15.20;6.25;;;17.10;99.90;;;;;;4956145;28;20495;-58
2022/08/22 05:17:31;;;;;;;16.20;6.25;;;16.50;99.90;;;;;;4955545;28;20432;-58
2022/08/22 05:20:08;;;;;;;13.15;5.78;;;16.60;99.90;;;;;;4956219;28;20523;-58
2022/08/22 05:22:39;;;;;;;18.13;6.07;;;16.70;99.90;;;;;;4948190;29;20416;-58
2022/08/22 05:25:16;;;;;;;15.50;6.13;;;17.70;99.90;;;;;;4936172;29;20496;-58
2022/08/22 05:27:53;;;;;;;16.55;5.80;;;16.80;99.90;;;;;;4935030;29;20036;-58
2022/08/22 05:30:23;;;;;;;19.15;6.63;;;16.70;99.90;;;;;;4935057;29;20439;-59
2022/08/22 05:33:18;;;;;;;16.38;6.30;;;16.70;99.90;;;;;;4936060;29;20055;-59
2022/08/22 05:36:00;;;;;;;16.20;6.00;;;16.90;99.90;;;;;;4935672;29;20040;-58
2022/08/22 05:38:33;;;;;;;15.43;5.95;;;17.00;99.90;;;;;;4937318;29;20048;-59
2022/08/22 05:41:07;;;;;;;18.38;5.97;;;17.00;99.90;;;;;;4936144;29;20051;-59
2022/08/22 05:43:39;;;;;;;16.95;5.85;;;17.00;99.90;;;;;;4937802;29;20556;-59
2022/08/22 05:46:08;;;;;;;15.77;6.32;;;17.10;99.90;;;;;;4938011;29;20047;-59
2022/08/22 05:48:44;;;;;;;18.48;6.00;;;17.20;99.90;;;;;;4937572;29;20055;-59
2022/08/22 05:51:20;;;;;;;20.08;6.18;;;17.50;99.90;;;;;;4937746;29;20075;-58
2022/08/22 05:53:49;;;;;;;23.45;6.45;;;17.20;99.90;;;;;;4937574;29;20032;-59
2022/08/22 05:56:27;;;;;;;23.95;6.10;;;17.20;99.90;;;;;;4936780;29;20083;-59
2022/08/22 05:58:58;;;;;;;20.90;6.40;;;17.20;99.90;;;;;;4936829;29;20429;-59
2022/08/22 06:01:41;;;;;;;18.45;6.90;;;17.20;99.90;;;;;;4937609;29;20083;-58
2022/08/22 06:04:28;;;;;;;16.83;6.13;;;17.50;99.90;;;;;;4937409;29;20116;-58
2022/08/22 06:07:00;;;;;;;24.63;6.40;;;17.40;99.90;;;;;;4937488;29;20049;-58
2022/08/22 06:09:31;;;;;;;22.90;6.28;;;17.40;99.90;;;;;;4936088;29;20048;-58
2022/08/22 06:12:09;;;;;;;14.90;5.57;;;17.40;99.90;;;;;;4937367;29;20075;-59
2022/08/22 06:14:44;;;;;;;14.15;5.70;;;17.30;99.90;;;;;;4937100;29;20065;-59
2022/08/22 06:17:20;;;;;;;17.80;5.75;;;17.40;99.90;;;;;;4937505;29;20054;-59
2022/08/22 06:19:49;;;;;;;14.32;5.40;;;17.60;99.90;;;;;;4937170;29;20086;-59
2022/08/22 06:22:25;;;;;;;13.93;5.30;;;17.40;99.90;;;;;;4941939;28;20051;-59
2022/08/22 06:24:56;;;;;;;15.80;5.82;;;17.40;99.90;;;;;;4958175;28;20643;-58
2022/08/22 06:27:26;;;;;;;16.63;5.40;;;17.50;99.90;;;;;;4975613;28;20042;-58
2022/08/22 06:29:59;;;;;;;16.05;5.53;;;17.70;99.90;;;;;;4975540;28;20109;-58
2022/08/22 06:32:29;;;;;;;15.68;5.65;;;17.60;99.90;;;;;;4975324;28;20078;-58
2022/08/22 06:35:09;;;;;;;18.60;5.32;;;17.60;99.90;;;;;;4974926;28;20102;-59
2022/08/22 06:37:39;;;;;;;16.05;4.97;;;17.70;99.90;;;;;;4975153;28;20042;-58
2022/08/22 06:40:11;;;;;;;15.73;5.22;;;17.70;99.90;;;;;;4975354;28;20045;-59
2022/08/22 06:42:40;;;;;;;20.23;5.28;;;20.50;99.90;;;;;;4958617;28;20093;-58
2022/08/22 06:45:31;;;;;;;16.35;5.05;;;17.80;99.90;;;;;;4957840;28;20061;-58
2022/08/22 06:48:14;;;;;;;14.27;5.07;;;17.90;99.90;;;;;;4974409;28;20054;-58
2022/08/22 06:50:47;;;;;;;13.88;4.63;;;18.20;99.90;;;;;;4975235;28;20081;-58
2022/08/22 06:53:24;;;;;;;14.13;4.65;;;18.00;99.90;;;;;;4975132;28;20434;-58
2022/08/22 06:56:01;;;;;;;14.13;4.50;;;18.20;99.90;;;;;;4975103;28;20075;-58
2022/08/22 06:58:40;;;;;;;16.52;4.50;;;18.10;99.90;;;;;;4975335;28;20475;-59
2022/08/22 07:01:11;;;;;;;12.50;3.97;;;18.40;99.90;;;;;;4974997;28;20050;-59
2022/08/22 07:03:52;;;;;;;13.88;4.35;;;19.40;99.90;;;;;;4974821;28;20066;-59
2022/08/22 07:06:33;;;;;;;16.58;4.60;;;19.30;99.90;;;;;;4974842;28;20038;-59
2022/08/22 07:08:58;;;;;;;16.08;4.57;;;19.60;99.90;;;;;;4974937;28;20043;-59
2022/08/22 07:11:36;;;;;;;17.55;4.70;;;19.50;99.90;;;;;;4974865;28;20035;-59
2022/08/22 07:14:10;;;;;;;14.98;4.68;;;19.40;99.90;;;;;;4974847;28;20078;-59
2022/08/22 07:17:15;;;;;;;10.35;4.38;;;19.30;99.90;;;;;;4957487;28;20059;-59
2022/08/22 07:20:06;;;;;;;13.02;4.70;;;19.20;99.90;;;;;;4935673;28;20499;-60
2022/08/22 07:22:35;;;;;;;15.10;4.68;;;19.10;99.90;;;;;;4960799;28;20055;-59
2022/08/22 07:25:12;;;;;;;14.02;5.10;;;19.00;99.90;;;;;;4974466;28;20035;-59
2022/08/22 07:28:03;;;;;;;17.27;4.72;;;18.90;99.90;;;;;;4974397;28;20051;-59
2022/08/22 07:30:57;;;;;;;16.42;5.00;;;19.00;99.90;;;;;;4974609;28;20093;-59
2022/08/22 07:33:45;;;;;;;17.70;5.18;;;19.00;99.90;;;;;;4971630;28;20130;-59
2022/08/22 07:36:50;;;;;;;13.23;4.50;;;19.00;99.90;;;;;;4974409;28;20038;-59
2022/08/22 07:39:29;;;;;;;20.15;4.97;;;19.10;99.90;;;;;;4974252;28;20479;-59
2022/08/22 07:42:08;;;;;;;14.77;4.68;;;18.90;99.90;;;;;;4974286;28;20039;-59
2022/08/22 07:45:06;;;;;;;14.48;4.70;;;19.00;99.90;;;;;;4974300;28;20043;-60
2022/08/22 07:48:04;;;;;;;16.42;4.60;;;19.10;99.90;;;;;;4974271;28;20043;-60
2022/08/22 07:50:41;;;;;;;15.00;4.75;;;18.90;99.90;;;;;;4931557;28;20113;-60
2022/08/22 07:53:33;;;;;;;13.48;4.68;;;19.10;99.90;;;;;;4974426;28;20074;-60
2022/08/22 07:56:01;;;;;;;16.25;4.60;;;19.20;99.90;;;;;;4956919;28;20480;-60
2022/08/22 07:58:30;;;;;;;14.27;5.10;;;19.30;99.90;;;;;;4976093;28;20085;-60
2022/08/22 08:00:57;;;;;;;16.83;4.35;;;19.40;99.90;;;;;;4977913;28;20082;-60
2022/08/22 08:03:26;;;;;;;14.80;4.25;;;19.60;99.90;;;;;;4960929;28;20101;-60
2022/08/22 08:05:53;;;;;;;17.48;4.40;;;19.80;99.90;;;;;;4978140;28;20066;-60
2022/08/22 08:08:49;;;;;;;12.57;4.32;;;19.90;99.90;;;;;;4978057;28;20043;-61
2022/08/22 08:11:17;;;;;;;14.88;4.28;;;20.00;99.90;;;;;;4961510;28;20050;-60
2022/08/22 08:13:48;;;;;;;16.63;4.53;;;20.10;99.90;;;;;;4977331;28;20047;-59
2022/08/22 08:16:22;;;;;;;15.68;4.50;;;20.20;99.90;;;;;;4977859;28;20039;-59
2022/08/22 08:18:51;;;;;;;15.32;4.03;;;20.20;99.90;;;;;;4961336;28;20047;-61
2022/08/22 08:21:42;;;;;;;13.70;4.03;;;20.30;99.90;;;;;;4977791;28;20074;-60
2022/08/22 08:24:15;;;;;;;18.80;4.53;;;20.70;99.90;;;;;;4977617;28;20417;-60
2022/08/22 08:29:32;;;;;;;16.15;4.50;;;20.10;99.90;;;;;;4977741;28;20222;-59
2022/08/22 08:31:59;;;;;;;17.55;4.55;;;20.20;99.90;;;;;;4977456;28;20569;-60
2022/08/22 08:34:31;;;;;;;14.93;4.47;;;20.20;99.90;;;;;;4977746;28;20061;-60
2022/08/22 08:37:05;;;;;;;14.40;4.93;;;21.00;99.90;;;;;;4977518;28;20050;-60
2022/08/22 08:39:42;;;;;;;16.33;4.53;;;20.10;99.90;;;;;;4977647;28;20050;-60
2022/08/22 08:43:37;;;;;;;18.85;4.72;;;20.20;99.90;;;;;;4977362;28;20078;-59
2022/08/22 08:46:16;;;;;;;13.02;4.43;;;19.80;99.90;;;;;;4969303;28;20047;-60
2022/08/22 08:49:07;;;;;;;14.70;4.40;;;20.50;99.90;;;;;;4946787;28;20522;-57
2022/08/22 08:51:51;;;;;;;20.35;4.85;;;20.60;99.90;;;;;;4977443;28;20050;-58
2022/08/22 08:54:55;;;;;;;18.27;5.03;;;20.70;99.90;;;;;;4976514;28;20042;-59
2022/08/22 08:57:52;;;;;;;18.25;4.68;;;21.00;99.90;;;;;;4977525;28;20196;-59
2022/08/22 09:00:41;;;;;;;18.67;5.00;;;20.90;99.90;;;;;;4977266;28;20126;-59
2022/08/22 09:03:59;;;;;;;12.75;4.25;;;21.00;99.90;;;;;;4977069;28;20061;-59
2022/08/22 09:06:41;;;;;;;16.17;4.47;;;24.40;99.90;;;;;;4977304;28;20088;-59
2022/08/22 09:09:32;;;;;;;14.00;4.07;;;21.30;99.90;;;;;;4976413;28;20081;-58
2022/08/22 09:12:32;;;;;;;14.73;4.18;;;21.40;99.90;;;;;;4977109;28;20078;-58
2022/08/22 09:15:07;;;;;;;13.88;3.47;;;21.50;99.90;;;;;;4976875;28;20395;-59
2022/08/22 09:17:51;;;;;;;9.95;3.75;;;21.20;99.90;;;;;;4959696;28;20053;-59
2022/08/22 09:20:45;;;;;;;15.75;3.97;;;21.60;99.90;;;;;;4959131;28;20047;-59
2022/08/22 09:23:48;;;;;;;10.73;3.40;;;21.80;99.90;;;;;;4976629;28;20093;-59
2022/08/22 09:26:49;;;;;;;15.68;3.70;;;21.80;99.90;;;;;;4976506;28;20133;-59
2022/08/22 09:29:30;;;;;;;14.27;3.97;;;22.30;99.90;;;;;;4879077;29;20538;-59
2022/08/22 09:32:11;;;;;;;15.88;3.85;;;21.80;99.90;;;;;;4879387;29;20114;-59
2022/08/22 09:34:55;;;;;;;12.88;3.40;;;21.90;99.90;;;;;;4879265;29;20518;-59
2022/08/22 09:37:33;;;;;;;11.30;3.35;;;21.60;99.90;;;;;;4879233;29;20538;-59
2022/08/22 09:40:12;;;;;;;13.30;3.58;;;22.20;99.90;;;;;;4879197;29;20055;-59
2022/08/22 09:42:56;;;;;;;10.00;3.03;;;22.50;99.90;;;;;;4879397;29;20048;-58
2022/08/22 09:45:22;;;;;;;10.48;2.80;;;22.50;99.90;;;;;;4879176;29;20041;-59
2022/08/22 09:47:57;;;;;;;10.07;3.00;;;22.90;99.90;;;;;;4879057;29;20049;-59
2022/08/22 09:50:31;;;;;;;9.13;3.10;;;22.40;99.90;;;;;;4879157;29;20081;-59
2022/08/22 09:53:10;;;;;;;11.82;3.25;;;21.90;99.90;;;;;;4879055;29;20428;-58
2022/08/22 09:55:42;;;;;;;13.32;3.33;;;22.30;99.90;;;;;;4878983;29;20188;-58
2022/08/22 09:58:36;;;;;;;8.65;2.80;;;22.40;99.90;;;;;;4879065;29;20085;-58
2022/08/22 10:01:43;;;;;;;12.88;3.17;;;22.30;99.90;;;;;;4878922;29;20083;-59
2022/08/22 10:04:40;;;;;;;8.52;2.70;;;22.40;99.90;;;;;;4946490;28;20073;-60
2022/08/22 10:07:33;;;;;;;9.98;3.15;;;22.40;99.90;;;;;;4975749;28;20483;-60
2022/08/22 10:10:20;;;;;;;8.07;3.00;;;22.20;99.90;;;;;;4975729;28;20093;-58
2022/08/22 10:13:05;;;;;;;8.43;2.92;;;22.30;99.90;;;;;;4975350;28;20035;-59
2022/08/22 10:15:49;;;;;;;14.30;3.07;;;22.30;99.90;;;;;;4975760;28;20046;-59
2022/08/22 10:18:48;;;;;;;14.75;3.53;;;22.40;99.90;;;;;;4975840;28;20046;-59
2022/08/22 10:21:23;;;;;;;10.82;2.90;;;22.40;99.90;;;;;;4975112;28;20117;-59
2022/08/22 10:24:00;;;;;;;12.10;3.28;;;22.50;99.90;;;;;;4958317;28;20093;-59
2022/08/22 10:26:46;;;;;;;9.40;3.10;;;22.50;99.90;;;;;;4975432;28;20503;-58
2022/08/22 10:29:33;;;;;;;12.35;3.50;;;22.70;99.90;;;;;;4975437;28;20043;-59
2022/08/22 10:32:17;;;;;;;17.17;3.25;;;23.00;99.90;;;;;;4975507;28;20407;-58
2022/08/22 10:34:47;;;;;;;9.43;2.92;;;23.10;99.90;;;;;;4958291;28;20446;-59
2022/08/22 10:37:35;;;;;;;9.85;3.10;;;23.10;99.90;;;;;;4975117;28;20045;-59
2022/08/22 10:40:22;;;;;;;8.40;2.60;;;23.20;99.90;;;;;;4973676;28;20041;-59
2022/08/22 10:43:21;;;;;;;11.40;3.15;;;23.30;99.90;;;;;;4958344;28;20399;-60
2022/08/22 10:45:57;;;;;;;11.90;3.08;;;23.10;99.90;;;;;;4941884;28;20050;-60
2022/08/22 10:48:29;;;;;;;11.00;3.30;;;23.30;99.90;;;;;;4973820;28;20496;-60
2022/08/22 10:51:10;;;;;;;11.48;3.20;;;23.30;99.90;;;;;;4974068;28;20050;-60
2022/08/22 10:53:54;;;;;;;10.38;3.22;;;23.30;99.90;;;;;;4956380;28;20427;-60
2022/08/22 10:56:51;;;;;;;11.70;3.40;;;23.50;99.90;;;;;;4973705;28;20487;-60
2022/08/22 10:59:19;;;;;;;10.50;3.47;;;23.70;99.90;;;;;;4973667;28;20082;-59
2022/08/22 11:02:26;;;;;;;13.60;3.45;;;24.30;99.90;;;;;;4974124;28;20386;-60
2022/08/22 11:05:17;;;;;;;17.15;2.85;;;24.00;99.90;;;;;;4876814;29;20593;-60
2022/08/22 11:07:52;;;;;;;9.25;3.15;;;24.10;99.90;;;;;;4876545;29;20611;-60
2022/08/22 11:10:48;;;;;;;12.15;3.38;;;24.00;99.90;;;;;;4876521;29;20057;-60
2022/08/22 11:13:39;;;;;;;13.88;3.30;;;24.20;99.90;;;;;;4876173;29;20057;-60
2022/08/22 11:16:28;;;;;;;10.75;3.30;;;24.40;99.90;;;;;;4876741;29;20052;-61
2022/08/22 11:19:15;;;;;;;11.85;3.38;;;24.50;99.80;;;;;;4876553;29;20497;-60
2022/08/22 11:21:45;;;;;;;14.55;3.40;;;24.50;99.30;;;;;;4876958;29;20085;-60
2022/08/22 11:24:38;;;;;;;10.10;3.17;;;24.50;99.70;;;;;;4875910;29;20140;-60
2022/08/22 11:27:15;;;;;;;10.98;3.05;;;24.50;98.60;;;;;;4875458;29;20064;-60
2022/08/22 11:29:58;;;;;;;10.32;3.10;;;24.30;98.80;;;;;;4876567;29;20414;-61
2022/08/22 11:32:31;;;;;;;11.30;3.45;;;24.50;99.90;;;;;;4876556;29;20055;-63
2022/08/22 11:35:04;;;;;;;12.45;3.17;;;24.30;99.40;;;;;;4875091;29;20060;-63
2022/08/22 11:37:57;;;;;;;12.18;3.25;;;24.30;99.60;;;;;;4858437;29;20085;-61
2022/08/22 11:40:44;;;;;;;10.02;3.00;;;24.30;98.70;;;;;;4936098;29;20040;-60
2022/08/22 11:43:46;;;;;;;13.63;3.45;;;24.30;99.40;;;;;;4935001;29;20054;-60
2022/08/22 11:46:20;;;;;;;9.63;3.40;;;24.20;99.90;;;;;;4936109;29;20048;-61
2022/08/22 11:49:23;;;;;;;12.20;3.30;;;24.50;99.00;;;;;;4935810;29;20040;-61
2022/08/22 11:52:13;;;;;;;11.60;3.40;;;23.90;99.90;;;;;;4935790;29;20094;-61
2022/08/22 11:54:50;;;;;;;13.52;3.63;;;24.70;98.00;;;;;;4935852;29;20044;-60
2022/08/22 11:57:27;;;;;;;9.05;3.10;;;24.90;98.50;;;;;;4937713;29;20076;-60
2022/08/22 12:00:03;;;;;;;10.05;3.28;;;25.10;98.10;;;;;;4951129;29;20047;-59
2022/08/22 12:03:03;;;;;;;11.57;3.15;;;25.30;97.30;;;;;;4951638;29;20098;-60
2022/08/22 12:05:55;;;;;;;13.82;3.40;;;25.50;95.40;;;;;;4951536;29;20118;-60
2022/08/22 12:08:36;;;;;;;14.13;3.72;;;25.70;95.40;;;;;;4950989;29;20039;-59
2022/08/22 12:11:10;;;;;;;13.38;3.15;;;25.70;95.80;;;;;;4951089;29;20465;-57
2022/08/22 12:13:48;;;;;;;13.23;3.30;;;25.60;94.60;;;;;;4950984;29;20495;-58
2022/08/22 12:16:23;;;;;;;8.23;2.95;;;25.70;94.80;;;;;;4951000;29;20089;-60
2022/08/22 12:19:13;;;;;;;12.18;3.50;;;25.90;94.70;;;;;;4951065;29;20059;-59
2022/08/22 12:22:02;;;;;;;11.52;3.25;;;25.90;94.30;;;;;;4950935;29;20055;-59
2022/08/22 12:24:42;;;;;;;13.13;3.47;;;25.80;94.20;;;;;;4909934;29;20048;-58
2022/08/22 12:27:33;;;;;;;8.48;3.25;;;25.80;93.40;;;;;;4910778;29;20052;-59
2022/08/22 12:30:02;;;;;;;16.42;3.50;;;25.80;93.90;;;;;;4904041;29;20151;-59
2022/08/22 12:32:54;;;;;;;10.40;3.00;;;26.00;94.30;;;;;;4911701;29;20040;-60
2022/08/22 12:35:43;;;;;;;13.63;3.88;;;26.20;94.00;;;;;;4913303;29;20410;-60
2022/08/22 12:38:37;;;;;;;10.10;3.10;;;26.30;93.10;;;;;;4913136;29;20044;-60
2022/08/22 12:41:30;;;;;;;11.27;3.33;;;26.20;93.00;;;;;;4912704;29;20055;-60
2022/08/22 12:44:01;;;;;;;13.05;3.72;;;26.20;92.90;;;;;;4914051;29;20492;-60
2022/08/22 12:46:46;;;;;;;13.20;3.45;;;26.10;95.60;;;;;;4916324;29;20111;-60
2022/08/22 12:49:17;;;;;;;7.27;3.00;;;25.90;92.60;;;;;;4916517;29;20075;-60
2022/08/22 12:51:59;;;;;;;13.65;3.38;;;26.00;92.20;;;;;;4916637;29;20079;-60
2022/08/22 12:54:31;;;;;;;12.35;2.90;;;26.00;93.90;;;;;;4916397;29;20052;-60
2022/08/22 12:57:32;;;;;;;14.52;3.22;;;26.00;90.70;;;;;;4916494;29;20119;-60
2022/08/22 13:00:26;;;;;;;12.13;3.28;;;26.20;90.70;;;;;;4913521;29;20115;-60
2022/08/22 13:02:53;;;;;;;11.85;3.10;;;26.30;90.00;;;;;;4956856;28;20090;-60
2022/08/22 13:05:23;;;;;;;11.48;3.13;;;26.40;91.10;;;;;;4957035;28;20372;-60
2022/08/22 13:08:03;;;;;;;10.18;3.17;;;26.50;92.00;;;;;;4956642;28;20066;-60
2022/08/22 13:10:29;;;;;;;11.13;3.20;;;26.70;90.10;;;;;;4956836;28;20114;-60
2022/08/22 13:12:58;;;;;;;14.82;3.15;;;26.60;88.10;;;;;;4956612;29;20126;-60
2022/08/22 13:15:34;;;;;;;8.95;3.10;;;26.60;87.50;;;;;;4955524;29;20043;-60
2022/08/22 13:18:05;;;;;;;10.05;2.85;;;26.60;86.80;;;;;;4956509;28;20175;-60
2022/08/22 13:20:37;;;;;;;7.45;2.90;;;26.40;84.70;;;;;;4956629;28;20499;-60
2022/08/22 13:23:21;;;;;;;10.35;2.80;;;26.30;85.10;;;;;;4956433;28;20058;-60
2022/08/22 13:26:02;;;;;;;7.70;2.67;;;26.30;84.10;;;;;;4957103;29;20059;-60
2022/08/22 13:28:32;;;;;;;7.20;2.50;;;26.40;82.50;;;;;;4957311;29;20051;-60
2022/08/22 13:30:59;;;;;;;11.05;2.70;;;26.50;82.20;;;;;;4957285;29;20050;-60
2022/08/22 13:33:33;;;;;;;8.82;2.67;;;26.60;81.20;;;;;;4956670;29;20392;-60
2022/08/22 13:36:06;;;;;;;11.25;2.45;;;26.70;86.30;;;;;;4957158;29;20039;-60
2022/08/22 13:38:40;;;;;;;7.93;2.65;;;26.90;78.80;;;;;;4957302;29;20113;-61
2022/08/22 13:41:07;;;;;;;8.82;2.60;;;27.10;78.60;;;;;;4956084;29;20488;-60
2022/08/22 13:44:22;;;;;;;8.82;2.60;;;27.30;78.50;;;;;;4956988;29;20047;-60
2022/08/22 13:46:49;;;;;;;8.23;2.50;;;27.30;75.80;;;;;;4935920;29;20511;-60
2022/08/22 13:49:30;;;;;;;11.20;2.95;;;27.30;75.90;;;;;;4956752;29;20503;-60
2022/08/22 13:52:25;;;;;;;8.23;2.88;;;27.20;74.30;;;;;;4957024;29;20043;-60
2022/08/22 13:55:20;;;;;;;8.68;2.50;;;27.10;73.40;;;;;;4955962;28;20495;-60
2022/08/22 13:58:02;;;;;;;7.22;2.40;;;27.10;75.70;;;;;;4957004;29;20089;-61
2022/08/22 14:00:34;;;;;;;9.40;2.85;;;27.20;75.50;;;;;;4957058;29;20043;-61